Time;durP1;ratioP1;P1;durP2;ratioP2;P2;SDS_P1;SDS_P2;PMS_P1;PMS_P2;Temp;Humidity;BMP_temperature;BMP_pressure;BME280_temperature;BME280_humidity;BME280_pressure;Samples;Min_cycle;Max_cycle;Signal;HPM_P1;HPM_P2
2023/02/20 00:02:36;;;;;;;;;;;;;;;5.53;100.00;102517.16;10499273;28;20264;-69
2023/02/20 00:07:38;;;;;;;;;;;;;;;5.49;100.00;102509.41;10499083;28;19932;-69
2023/02/20 00:12:41;;;;;;;;;;;;;;;5.67;100.00;102506.63;10499589;28;19928;-69
2023/02/20 00:17:46;;;;;;;;;;;;;;;5.57;100.00;102498.06;10481825;28;19924;-69
2023/02/20 00:22:48;;;;;;;;;;;;;;;5.72;100.00;102481.47;10499324;28;19932;-69
2023/02/20 00:27:50;;;;;;;;;;;;;;;5.59;100.00;102472.06;10481430;28;19924;-68
2023/02/20 00:32:53;;;;;;;;;;;;;;;5.56;100.00;102456.50;10498430;28;19924;-68
2023/02/20 00:37:55;;;;;;;;;;;;;;;5.45;100.00;102443.63;10497913;28;19928;-69
2023/02/20 00:42:57;;;;;;;;;;;;;;;5.48;100.00;102441.00;10498860;28;19924;-69
2023/02/20 00:48:00;;;;;;;;;;;;;;;5.62;100.00;102429.63;10498785;28;19936;-69
2023/02/20 00:53:02;;;;;;;;;;;;;;;5.56;100.00;102438.31;10480978;28;19924;-68
2023/02/20 00:58:04;;;;;;;;;;;;;;;5.57;100.00;102440.06;10502207;28;19931;-69
2023/02/20 01:03:07;;;;;;;;;;;;;;;5.73;100.00;102417.34;10507116;28;19925;-69
2023/02/20 01:08:09;;;;;;;;;;;;;;;5.73;100.00;102401.75;10506754;28;19932;-69
2023/02/20 01:13:11;;;;;;;;;;;;;;;5.53;100.00;102408.03;10506639;28;19939;-69
2023/02/20 01:18:13;;;;;;;;;;;;;;;5.53;100.00;102400.25;10504699;28;19924;-69
2023/02/20 01:23:15;;;;;;;;;;;;;;;5.43;100.00;102390.84;10505164;28;19932;-69
2023/02/20 01:28:18;;;;;;;;;;;;;;;5.37;100.00;102388.28;10505933;28;19924;-69
2023/02/20 01:33:20;;;;;;;;;;;;;;;5.51;100.00;102364.75;10505114;28;19928;-70
2023/02/20 01:38:22;;;;;;;;;;;;;;;5.45;100.00;102367.44;10505617;28;19975;-69
2023/02/20 01:43:25;;;;;;;;;;;;;;;5.47;100.00;102355.28;10505406;28;19979;-70
2023/02/20 01:48:27;;;;;;;;;;;;;;;5.51;100.00;102324.03;10503993;28;19925;-69
2023/02/20 01:53:29;;;;;;;;;;;;;;;5.37;100.00;102338.94;10505052;28;19978;-69
2023/02/20 01:58:42;;;;;;;;;;;;;;;5.42;100.00;102334.56;10504799;28;19974;-69
2023/02/20 02:03:45;;;;;;;;;;;;;;;5.39;100.00;102326.78;10502899;28;20363;-69
2023/02/20 02:08:47;;;;;;;;;;;;;;;5.44;100.00;102319.81;10503123;28;19924;-70
2023/02/20 02:13:49;;;;;;;;;;;;;;;5.48;100.00;102318.03;10502506;28;20439;-70
2023/02/20 02:19:18;;;;;;;;;;;;;;;5.26;100.00;102320.88;10502925;28;19924;-69
2023/02/20 02:24:30;;;;;;;;;;;;;;;5.52;100.00;102306.72;10487816;28;19974;-70
2023/02/20 02:29:37;;;;;;;;;;;;;;;5.51;100.00;102299.81;10501611;28;20336;-69
2023/02/20 02:34:58;;;;;;;;;;;;;;;5.40;100.00;102295.59;10501766;28;19978;-69
2023/02/20 02:40:00;;;;;;;;;;;;;;;5.50;100.00;102304.16;10502632;28;20371;-69
2023/02/20 02:45:20;;;;;;;;;;;;;;;5.36;100.00;102277.47;10502514;28;20487;-70
2023/02/20 02:50:24;;;;;;;;;;;;;;;5.51;100.00;102292.88;10502219;28;20318;-70
2023/02/20 02:55:27;;;;;;;;;;;;;;;5.37;100.00;102294.78;10501571;28;19978;-70
2023/02/20 03:00:32;;;;;;;;;;;;;;;5.43;100.00;102291.25;10501403;28;19924;-70
2023/02/20 03:05:45;;;;;;;;;;;;;;;5.24;100.00;102280.22;10500523;28;19925;-69
2023/02/20 03:10:47;;;;;;;;;;;;;;;5.34;100.00;102277.47;10500522;28;20275;-69
2023/02/20 03:15:50;;;;;;;;;;;;;;;5.35;100.00;102266.22;10499952;28;20386;-69
2023/02/20 03:20:56;;;;;;;;;;;;;;;5.53;100.00;102267.75;10500622;28;19947;-69
2023/02/20 03:26:04;;;;;;;;;;;;;;;5.49;100.00;102271.25;10499654;28;19925;-69
2023/02/20 03:31:11;;;;;;;;;;;;;;;5.63;100.00;102273.69;10499532;28;19932;-69
2023/02/20 03:46:57;;;;;;;;;;;;;;;5.80;100.00;102262.19;10499658;28;19924;-69
2023/02/20 03:52:00;;;;;;;;;;;;;;;5.71;100.00;102252.78;10498502;28;19928;-69
2023/02/20 03:57:12;;;;;;;;;;;;;;;5.74;100.00;102252.75;10500135;28;19951;-70
2023/02/20 04:02:22;;;;;;;;;;;;;;;5.74;100.00;102244.94;10498887;28;19971;-68
2023/02/20 04:07:26;;;;;;;;;;;;;;;5.90;100.00;102250.78;10498091;28;20389;-69
2023/02/20 04:12:29;;;;;;;;;;;;;;;6.09;100.00;102251.41;10498447;28;19974;-70
2023/02/20 04:17:33;;;;;;;;;;;;;;;5.91;100.00;102252.50;10498397;28;19978;-69
2023/02/20 04:22:37;;;;;;;;;;;;;;;5.94;100.00;102250.72;10497596;28;19925;-69
2023/02/20 04:27:39;;;;;;;;;;;;;;;5.99;100.00;102239.44;10498194;28;19924;-70
2023/02/20 04:32:41;;;;;;;;;;;;;;;5.99;100.00;102248.09;10496555;28;19983;-69
2023/02/20 04:37:43;;;;;;;;;;;;;;;6.03;100.00;102252.34;10497921;28;19925;-69
2023/02/20 04:42:45;;;;;;;;;;;;;;;6.07;100.00;102256.63;10498944;28;19931;-70
2023/02/20 04:47:48;;;;;;;;;;;;;;;6.07;100.00;102256.63;10498758;28;19931;-70
2023/02/20 04:52:50;;;;;;;;;;;;;;;6.16;100.00;102257.38;10497595;28;19929;-70
2023/02/20 04:57:54;;;;;;;;;;;;;;;6.14;100.00;102239.19;10498673;28;19925;-70
2023/02/20 05:02:57;;;;;;;;;;;;;;;6.13;100.00;102259.13;10497465;28;19932;-69
2023/02/20 05:08:05;;;;;;;;;;;;;;;6.19;100.00;102254.72;10497327;28;19924;-70
2023/02/20 05:13:08;;;;;;;;;;;;;;;6.28;100.00;102250.22;10497199;28;19932;-69
2023/02/20 05:18:10;;;;;;;;;;;;;;;6.29;100.00;102258.91;10498179;28;19955;-70
2023/02/20 05:23:12;;;;;;;;;;;;;;;6.27;100.00;102245.91;10498207;28;19925;-70
2023/02/20 05:28:16;;;;;;;;;;;;;;;6.35;100.00;102242.31;10480404;28;19931;-69
2023/02/20 05:33:18;;;;;;;;;;;;;;;6.53;100.00;102225.56;10497212;28;19925;-70
2023/02/20 05:38:20;;;;;;;;;;;;;;;6.40;100.00;102233.53;10496081;28;20379;-69
2023/02/20 05:43:22;;;;;;;;;;;;;;;6.49;100.00;102248.16;10500267;28;19931;-69
2023/02/20 05:48:24;;;;;;;;;;;;;;;6.47;100.00;102237.78;10504542;28;19924;-70
2023/02/20 05:53:27;;;;;;;;;;;;;;;6.56;100.00;102221.16;10505074;28;19928;-69
2023/02/20 05:58:30;;;;;;;;;;;;;;;6.48;100.00;102230.81;10503809;28;19931;-70
2023/02/20 06:03:32;;;;;;;;;;;;;;;6.47;100.00;102221.28;10504114;28;20382;-69
2023/02/20 06:08:34;;;;;;;;;;;;;;;6.57;100.00;102222.00;10504489;28;19924;-69
2023/02/20 06:13:40;;;;;;;;;;;;;;;6.51;100.00;102221.22;10486635;28;19925;-70
2023/02/20 06:18:42;;;;;;;;;;;;;;;6.55;100.00;102213.38;10503638;28;20325;-70
2023/02/20 06:23:45;;;;;;;;;;;;;;;6.58;100.00;102214.16;10503955;28;19924;-70
2023/02/20 06:28:49;;;;;;;;;;;;;;;6.61;100.00;102213.25;10502008;28;19974;-70
2023/02/20 06:33:51;;;;;;;;;;;;;;;6.62;100.00;102208.03;10501840;28;19932;-70
2023/02/20 06:38:54;;;;;;;;;;;;;;;6.57;100.00;102216.78;10502281;28;19951;-70
2023/02/20 06:43:59;;;;;;;;;;;;;;;6.65;100.00;102214.91;10502179;28;19924;-69
2023/02/20 06:49:01;;;;;;;;;;;;;;;6.68;100.00;102220.06;10501225;28;20445;-70
2023/02/20 06:54:03;;;;;;;;;;;;;;;6.70;100.00;102224.34;10502078;28;19932;-69
2023/02/20 06:59:07;;;;;;;;;;;;;;;6.75;100.00;102223.41;10501916;28;19971;-70
2023/02/20 07:04:17;;;;;;;;;;;;;;;6.84;100.00;102216.28;10500640;28;20372;-70
2023/02/20 07:09:19;;;;;;;;;;;;;;;6.85;100.00;102212.78;10500963;28;19931;-70
2023/02/20 07:14:22;;;;;;;;;;;;;;;6.86;100.00;102209.31;10501970;28;19924;-70
2023/02/20 07:19:24;;;;;;;;;;;;;;;6.97;100.00;102213.44;10500657;28;19924;-70
2023/02/20 07:24:27;;;;;;;;;;;;;;;6.97;100.00;102226.47;10501434;28;19924;-70
2023/02/20 07:29:29;;;;;;;;;;;;;;;6.89;100.00;102231.81;10501298;28;19939;-70
2023/02/20 07:34:31;;;;;;;;;;;;;;;6.94;100.00;102221.31;10500543;28;19928;-69
2023/02/20 07:39:34;;;;;;;;;;;;;;;6.94;100.00;102210.91;10500210;28;19928;-70
2023/02/20 07:44:36;;;;;;;;;;;;;;;7.15;100.00;102207.03;10469108;22;19972;-69
2023/02/20 07:49:38;;;;;;;;;;;;;;;7.06;100.00;102208.91;10417401;28;19925;-70
2023/02/20 07:54:41;;;;;;;;;;;;;;;7.13;100.00;102203.56;10419632;28;19929;-70
2023/02/20 07:59:43;;;;;;;;;;;;;;;7.22;100.00;102209.44;10396326;28;20280;-71
2023/02/20 08:04:46;;;;;;;;;;;;;;;7.20;100.00;102213.84;10417174;28;20403;-70
2023/02/20 08:09:48;;;;;;;;;;;;;;;7.29;100.00;102215.38;10416175;28;19925;-70
2023/02/20 08:14:50;;;;;;;;;;;;;;;7.24;100.00;102207.66;10415756;28;19933;-69
2023/02/20 08:19:53;;;;;;;;;;;;;;;7.29;100.00;102209.31;10417379;28;19933;-70
2023/02/20 08:24:55;;;;;;;;;;;;;;;7.32;100.00;102223.16;10391217;28;19925;-72
2023/02/20 08:29:58;;;;;;;;;;;;;;;7.35;100.00;102215.28;10414043;28;20335;-72
2023/02/20 08:35:00;;;;;;;;;;;;;;;7.48;100.00;102225.41;10380031;28;20560;-72
2023/02/20 08:40:05;;;;;;;;;;;;;;;7.41;100.00;102219.47;10387268;28;20020;-72
2023/02/20 08:45:08;;;;;;;;;;;;;;;7.39;100.00;102214.28;10415856;28;20284;-72
2023/02/20 08:50:10;;;;;;;;;;;;;;;7.48;100.00;102215.88;10428175;28;19925;-73
2023/02/20 08:55:12;;;;;;;;;;;;;;;7.46;100.00;102222.00;10415841;28;19929;-72
2023/02/20 09:00:16;;;;;;;;;;;;;;;7.52;100.00;102208.84;10383151;28;19926;-72
2023/02/20 09:05:18;;;;;;;;;;;;;;;7.50;100.00;102201.06;10373993;28;19925;-72
2023/02/20 09:10:21;;;;;;;;;;;;;;;7.63;100.00;102209.44;10357240;28;19929;-72
2023/02/20 09:15:23;;;;;;;;;;;;;;;7.80;100.00;102203.84;10373933;28;19929;-72
2023/02/20 09:20:26;;;;;;;;;;;;;;;7.89;100.00;102193.22;10380165;28;19925;-72
2023/02/20 09:25:28;;;;;;;;;;;;;;;7.82;100.00;102200.31;10364690;28;19932;-72
2023/02/20 09:30:30;;;;;;;;;;;;;;;7.86;100.00;102201.09;10381683;28;19979;-72
2023/02/20 09:35:32;;;;;;;;;;;;;;;8.01;100.00;102210.31;10365166;28;20007;-72
2023/02/20 09:40:35;;;;;;;;;;;;;;;8.37;100.00;102199.84;10381356;28;19925;-72
2023/02/20 09:45:37;;;;;;;;;;;;;;;8.26;100.00;102179.25;10378152;28;19929;-72
2023/02/20 09:50:43;;;;;;;;;;;;;;;8.23;100.00;102168.03;10379774;28;20395;-72
2023/02/20 09:55:46;;;;;;;;;;;;;;;8.14;100.00;102174.34;10380443;28;19932;-71
2023/02/20 10:00:48;;;;;;;;;;;;;;;8.15;100.00;102170.84;10380261;28;19932;-71
2023/02/20 10:05:50;;;;;;;;;;;;;;;8.26;100.00;102194.06;10379438;28;19925;-72
2023/02/20 10:10:53;;;;;;;;;;;;;;;8.12;100.00;102197.00;10379702;28;19929;-72
2023/02/20 10:15:55;;;;;;;;;;;;;;;8.14;100.00;102183.03;10378999;28;19980;-71
2023/02/20 10:21:10;;;;;;;;;;;;;;;8.13;100.00;102180.47;10379851;28;20460;-71
2023/02/20 10:26:14;;;;;;;;;;;;;;;8.24;100.00;102182.78;10379188;28;19980;-72
2023/02/20 10:31:16;;;;;;;;;;;;;;;8.27;100.00;102182.72;10377774;28;20020;-72
2023/02/20 10:36:23;;;;;;;;;;;;;;;8.30;100.00;102183.47;10379358;28;20372;-71
2023/02/20 10:41:32;;;;;;;;;;;;;;;8.04;100.00;102180.69;10378994;28;20266;-71
2023/02/20 10:46:50;;;;;;;;;;;;;;;8.29;100.00;102189.63;10377738;28;20373;-71
2023/02/20 10:51:54;;;;;;;;;;;;;;;8.18;100.00;102181.19;10377528;28;19951;-71
2023/02/20 10:57:00;;;;;;;;;;;;;;;8.37;100.00;102187.66;10378583;28;20455;-71
2023/02/20 11:02:03;;;;;;;;;;;;;;;8.27;100.00;102190.53;10377937;28;20107;-71
2023/02/20 11:07:09;;;;;;;;;;;;;;;8.18;100.00;102189.88;10377708;28;19926;-70
2023/02/20 11:12:18;;;;;;;;;;;;;;;8.26;100.00;102194.06;10377442;28;19929;-72
2023/02/20 11:17:20;;;;;;;;;;;;;;;8.23;100.00;102194.97;10376763;28;19980;-70
2023/02/20 11:22:41;;;;;;;;;;;;;;;8.37;100.00;102176.34;10377102;28;19936;-71
2023/02/20 11:27:44;;;;;;;;;;;;;;;8.24;100.00;102198.44;10377449;28;19936;-72
2023/02/20 11:32:46;;;;;;;;;;;;;;;8.19;100.00;102169.88;10376681;28;19926;-71
2023/02/20 11:37:50;;;;;;;;;;;;;;;8.21;100.00;102169.84;10376578;28;19932;-71
2023/02/20 11:43:08;;;;;;;;;;;;;;;8.30;100.00;102157.38;10375353;28;20438;-71
2023/02/20 11:48:18;;;;;;;;;;;;;;;8.63;100.00;102161.81;10376385;28;19976;-71
2023/02/20 11:53:28;;;;;;;;;;;;;;;8.77;100.00;102153.59;10377781;28;19929;-71
2023/02/20 11:58:31;;;;;;;;;;;;;;;8.61;100.00;102138.34;10399241;28;19932;-71
2023/02/20 12:03:34;;;;;;;;;;;;;;;8.54;100.00;102142.88;10428003;28;19956;-71
2023/02/20 12:08:36;;;;;;;;;;;;;;;8.57;100.00;102094.09;10416181;28;19925;-71
2023/02/20 12:13:39;;;;;;;;;;;;;;;8.79;100.00;102092.56;10417120;28;19925;-72
2023/02/20 12:18:50;;;;;;;;;;;;;;;8.70;100.00;102101.53;10399531;28;19929;-71
2023/02/20 12:24:01;;;;;;;;;;;;;;;8.63;100.00;102105.22;10417604;28;19925;-71
2023/02/20 12:29:19;;;;;;;;;;;;;;;8.61;100.00;102116.59;10399272;28;19929;-71
2023/02/20 12:34:25;;;;;;;;;;;;;;;8.76;100.00;102102.25;10399076;28;19932;-71
2023/02/20 12:39:27;;;;;;;;;;;;;;;8.92;100.00;102109.59;10417586;28;19952;-69
2023/02/20 12:44:29;;;;;;;;;;;;;;;8.72;100.00;102120.63;10409575;28;19995;-71
2023/02/20 12:49:43;;;;;;;;;;;;;;;8.91;100.00;102131.41;10417194;28;19925;-71
2023/02/20 12:54:51;;;;;;;;;;;;;;;8.87;100.00;102128.91;10415280;28;19925;-71
2023/02/20 12:59:56;;;;;;;;;;;;;;;8.77;100.00;102125.69;10398762;28;19929;-71
2023/02/20 13:04:59;;;;;;;;;;;;;;;8.82;100.00;102126.44;10398144;28;19933;-71
2023/02/20 13:10:03;;;;;;;;;;;;;;;8.66;100.00;102119.94;10414609;28;19925;-71
2023/02/20 13:15:11;;;;;;;;;;;;;;;8.78;100.00;102139.63;10414620;28;19975;-71
2023/02/20 13:20:23;;;;;;;;;;;;;;;9.08;100.00;102110.00;10415418;28;19952;-71
2023/02/20 13:25:32;;;;;;;;;;;;;;;9.06;100.00;102084.81;10413789;28;20398;-71
2023/02/20 13:30:34;;;;;;;;;;;;;;;8.93;100.00;102097.41;10414831;28;20315;-71
2023/02/20 13:35:40;;;;;;;;;;;;;;;8.88;100.00;102092.31;10413667;28;19925;-70
2023/02/20 13:40:43;;;;;;;;;;;;;;;8.88;100.00;102070.56;10415268;28;19932;-71
2023/02/20 13:45:45;;;;;;;;;;;;;;;9.03;100.00;102064.03;10413580;28;19926;-71
2023/02/20 13:50:48;;;;;;;;;;;;;;;8.96;100.00;102052.91;10380689;28;19925;-71
2023/02/20 13:55:50;;;;;;;;;;;;;;;8.97;100.00;102048.53;10415157;28;19925;-71
2023/02/20 14:00:53;;;;;;;;;;;;;;;9.04;100.00;102045.66;10414342;28;19925;-71
2023/02/20 14:06:04;;;;;;;;;;;;;;;9.14;100.00;102038.41;10402098;28;20012;-71
2023/02/20 14:11:27;;;;;;;;;;;;;;;9.00;100.00;102020.56;10422005;28;19925;-71
2023/02/20 14:16:31;;;;;;;;;;;;;;;9.09;100.00;102038.56;10410796;28;20284;-71
2023/02/20 14:21:34;;;;;;;;;;;;;;;9.05;100.00;102044.78;10403385;28;19929;-70
2023/02/20 14:26:36;;;;;;;;;;;;;;;8.96;100.00;102018.94;10421452;28;19957;-71
2023/02/20 14:31:38;;;;;;;;;;;;;;;8.90;100.00;102016.53;10421181;28;19972;-71
2023/02/20 14:36:44;;;;;;;;;;;;;;;9.05;100.00;102028.25;10421082;28;19979;-71
2023/02/20 14:41:50;;;;;;;;;;;;;;;9.10;100.00;102029.81;10420819;28;19925;-71
2023/02/20 14:46:53;;;;;;;;;;;;;;;9.23;100.00;102024.19;10402443;28;19925;-71
2023/02/20 14:52:10;;;;;;;;;;;;;;;9.12;100.00;102016.69;10420380;28;19925;-70
2023/02/20 14:57:13;;;;;;;;;;;;;;;9.27;100.00;102026.66;10419503;28;19925;-71
2023/02/20 15:02:16;;;;;;;;;;;;;;;9.21;100.00;102029.47;10436375;28;19991;-72
2023/02/20 15:07:33;;;;;;;;;;;;;;;8.86;100.00;102027.94;10426389;28;19932;-71
2023/02/20 15:12:37;;;;;;;;;;;;;;;8.98;100.00;102024.97;10418916;28;19925;-71
2023/02/20 15:17:40;;;;;;;;;;;;;;;9.09;100.00;102024.63;10419644;28;20379;-71
2023/02/20 15:22:42;;;;;;;;;;;;;;;8.90;100.00;102026.97;10402707;28;19925;-71
2023/02/20 15:28:03;;;;;;;;;;;;;;;8.91;100.00;102023.47;10418448;28;19925;-71
2023/02/20 15:33:06;;;;;;;;;;;;;;;8.80;100.00;102015.09;10376711;28;19976;-71
2023/02/20 15:38:11;;;;;;;;;;;;;;;8.84;100.00;102014.97;10359684;28;19988;-71
2023/02/20 15:43:15;;;;;;;;;;;;;;;8.82;100.00;102016.75;10377555;28;21362;-71
2023/02/20 15:48:37;;;;;;;;;;;;;;;9.10;100.00;102032.41;10375935;28;19961;-71
2023/02/20 15:53:41;;;;;;;;;;;;;;;9.02;100.00;102025.72;10377133;28;19925;-71
2023/02/20 15:58:43;;;;;;;;;;;;;;;8.87;100.00;102035.72;10375231;28;20019;-70
2023/02/20 16:03:46;;;;;;;;;;;;;;;8.84;100.00;102035.84;10359353;28;19925;-70
2023/02/20 16:08:54;;;;;;;;;;;;;;;9.07;100.00;102032.50;10381261;28;19925;-68
2023/02/20 16:13:57;;;;;;;;;;;;;;;8.81;100.00;102028.09;10374245;28;20295;-69
2023/02/20 16:18:59;;;;;;;;;;;;;;;8.93;100.00;102026.88;10358796;28;19925;-69
2023/02/20 16:24:02;;;;;;;;;;;;;;;8.91;100.00;102021.69;10369710;28;19981;-69
2023/02/20 16:29:26;;;;;;;;;;;;;;;8.91;100.00;102026.91;10334001;28;19930;-69
2023/02/20 16:34:32;;;;;;;;;;;;;;;8.72;100.00;102030.97;10333423;28;19926;-69
2023/02/20 16:39:34;;;;;;;;;;;;;;;8.61;100.00;102035.66;10352027;28;19991;-68
2023/02/20 16:44:39;;;;;;;;;;;;;;;8.68;100.00;102047.66;10386529;28;19926;-69
2023/02/20 16:49:41;;;;;;;;;;;;;;;8.66;100.00;102044.22;10357012;28;19925;-69
2023/02/20 16:54:44;;;;;;;;;;;;;;;8.83;100.00;102028.91;10375277;28;19936;-69
2023/02/20 16:59:46;;;;;;;;;;;;;;;8.70;100.00;102027.56;10374984;28;19976;-69
2023/02/20 17:04:49;;;;;;;;;;;;;;;8.62;100.00;102027.78;10377243;28;19925;-69
2023/02/20 17:09:52;;;;;;;;;;;;;;;8.68;100.00;102019.78;10363921;28;19969;-69
2023/02/20 17:14:56;;;;;;;;;;;;;;;8.60;100.00;102031.34;10374907;28;19929;-69
2023/02/20 17:19:59;;;;;;;;;;;;;;;8.65;100.00;102039.91;10374850;28;19932;-69
2023/02/20 17:25:01;;;;;;;;;;;;;;;8.60;100.00;102039.19;10377373;28;19926;-69
2023/02/20 17:30:04;;;;;;;;;;;;;;;8.76;100.00;102032.63;10376415;28;19956;-69
2023/02/20 17:35:06;;;;;;;;;;;;;;;8.61;100.00;102046.09;10372844;28;19953;-69
2023/02/20 17:40:09;;;;;;;;;;;;;;;8.72;100.00;102047.53;10378249;28;20403;-69
2023/02/20 17:45:11;;;;;;;;;;;;;;;8.71;100.00;102053.63;10394823;28;19925;-69
2023/02/20 17:50:15;;;;;;;;;;;;;;;8.66;100.00;102052.91;10406552;28;20368;-69
2023/02/20 17:55:18;;;;;;;;;;;;;;;8.65;100.00;102042.50;10422181;28;19972;-69
2023/02/20 18:00:21;;;;;;;;;;;;;;;8.60;100.00;102039.19;10421107;28;19932;-69
2023/02/20 18:05:23;;;;;;;;;;;;;;;8.61;100.00;102048.72;10422400;28;19925;-69
2023/02/20 18:10:25;;;;;;;;;;;;;;;8.80;100.00;102041.22;10404070;28;20327;-69
2023/02/20 18:15:31;;;;;;;;;;;;;;;8.69;100.00;102042.38;10420771;28;19925;-69
2023/02/20 18:20:33;;;;;;;;;;;;;;;8.77;100.00;102031.69;10401893;28;19925;-69
2023/02/20 18:25:36;;;;;;;;;;;;;;;8.53;100.00;102038.50;10420142;28;19929;-69
2023/02/20 18:30:42;;;;;;;;;;;;;;;8.62;100.00;102037.38;10421619;28;19925;-68
2023/02/20 18:35:44;;;;;;;;;;;;;;;8.65;100.00;102042.50;10402974;28;19929;-69
2023/02/20 18:40:57;;;;;;;;;;;;;;;8.67;100.00;102038.94;10404194;28;20426;-69
2023/02/20 18:46:00;;;;;;;;;;;;;;;8.57;100.00;102024.44;10419839;28;19952;-69
2023/02/20 18:51:02;;;;;;;;;;;;;;;8.58;100.00;102028.78;10421880;28;19995;-69
2023/02/20 18:56:08;;;;;;;;;;;;;;;8.66;100.00;102029.41;10419689;28;19929;-69
2023/02/20 19:01:16;;;;;;;;;;;;;;;8.58;100.00;102025.31;10421075;28;19925;-68
2023/02/20 19:06:39;;;;;;;;;;;;;;;8.70;100.00;102011.91;10419421;28;20016;-69
2023/02/20 19:11:41;;;;;;;;;;;;;;;8.58;100.00;102010.50;10361743;28;19926;-69
2023/02/20 19:16:53;;;;;;;;;;;;;;;8.47;100.00;102023.00;10376812;28;20375;-69
2023/02/20 19:21:56;;;;;;;;;;;;;;;8.61;100.00;102005.19;10419840;28;19960;-69
2023/02/20 19:26:58;;;;;;;;;;;;;;;8.61;100.00;102002.59;10400012;28;20438;-69
2023/02/20 19:32:00;;;;;;;;;;;;;;;8.65;100.00;102003.34;10427866;28;19932;-69
2023/02/20 19:37:02;;;;;;;;;;;;;;;8.53;100.00;102002.81;10418891;28;19976;-69
2023/02/20 19:42:05;;;;;;;;;;;;;;;8.70;100.00;101998.84;10418944;28;19933;-69
2023/02/20 19:47:08;;;;;;;;;;;;;;;8.57;100.00;102003.56;10417719;28;19927;-69
2023/02/20 19:52:10;;;;;;;;;;;;;;;8.72;100.00;101997.91;10417590;28;19925;-69
2023/02/20 20:02:16;;;;;;;;;;;;;;;8.55;100.00;101994.94;10332000;28;19980;-69
2023/02/20 20:07:18;;;;;;;;;;;;;;;8.49;100.00;101984.66;10335701;28;20016;-70
2023/02/20 20:17:41;;;;;;;;;;;;;;;8.55;100.00;102002.75;10335280;28;19926;-70
2023/02/20 20:22:44;;;;;;;;;;;;;;;8.59;100.00;101996.56;10335180;28;19926;-70
2023/02/20 20:27:47;;;;;;;;;;;;;;;8.51;100.00;101994.19;10349386;28;19972;-70
2023/02/20 20:32:50;;;;;;;;;;;;;;;8.57;100.00;101987.91;10349991;28;19933;-69
2023/02/20 20:37:52;;;;;;;;;;;;;;;8.49;100.00;101982.06;10350176;28;20002;-69
2023/02/20 20:42:55;;;;;;;;;;;;;;;8.55;100.00;101976.66;10333065;28;20352;-70
2023/02/20 20:47:57;;;;;;;;;;;;;;;8.58;100.00;101991.38;10348746;28;19929;-70
2023/02/20 20:53:00;;;;;;;;;;;;;;;8.62;100.00;101998.22;10334817;28;19925;-70
2023/02/20 20:58:02;;;;;;;;;;;;;;;8.62;100.00;102000.81;10333814;28;19934;-70
2023/02/20 21:03:07;;;;;;;;;;;;;;;8.75;100.00;101986.50;10332853;28;19929;-70
2023/02/20 21:08:09;;;;;;;;;;;;;;;8.49;100.00;101984.66;10348829;28;19933;-70
2023/02/20 21:13:12;;;;;;;;;;;;;;;8.52;100.00;101990.69;10331669;28;20431;-70
2023/02/20 21:18:14;;;;;;;;;;;;;;;8.50;100.00;101982.00;10342031;28;19981;-71
2023/02/20 21:23:16;;;;;;;;;;;;;;;8.49;100.00;101969.88;10341872;28;19926;-70
2023/02/20 21:28:19;;;;;;;;;;;;;;;8.36;100.00;101963.28;10342291;28;19926;-69
2023/02/20 21:33:21;;;;;;;;;;;;;;;8.49;100.00;101979.44;10342074;28;19926;-70
2023/02/20 21:38:23;;;;;;;;;;;;;;;8.56;100.00;101978.38;10341342;28;19929;-70
2023/02/20 21:48:46;;;;;;;;;;;;;;;8.52;100.00;101972.41;10340931;28;19925;-70
2023/02/20 21:53:49;;;;;;;;;;;;;;;8.49;100.00;101972.50;10340593;28;19932;-70
